createdAt,value
2018-11-02T00:00:12.145Z,0
2018-11-02T00:00:26.444Z,1.609344
2018-11-02T00:00:39.071Z,1.609344
2018-11-02T00:00:51.346Z,6.437376
2018-11-02T00:01:04.566Z,4.828032
2018-11-02T00:01:16.807Z,1.609344
2018-11-02T00:01:29.040Z,3.218688
2018-11-02T00:01:41.326Z,3.218688
2018-11-02T00:01:53.570Z,1.609344
2018-11-02T00:02:05.811Z,1.609344
2018-11-02T00:02:19.023Z,1.609344
2018-11-02T00:02:31.253Z,0
2018-11-02T00:02:43.463Z,3.218688
2018-11-02T00:02:55.688Z,1.609344
2018-11-02T00:03:07.926Z,1.609344
2018-11-02T00:03:20.995Z,3.218688
2018-11-02T00:03:33.277Z,3.218688
2018-11-02T00:03:45.504Z,4.828032
2018-11-02T00:03:57.755Z,3.218688
2018-11-02T00:04:10.041Z,1.609344
2018-11-02T00:04:22.926Z,8.04672
2018-11-02T00:04:35.799Z,4.828032
2018-11-02T00:04:48.048Z,4.828032
2018-11-02T00:05:00.733Z,6.437376
2018-11-02T00:05:13.145Z,9.656064
2018-11-02T00:05:25.393Z,6.437376
2018-11-02T00:05:38.424Z,6.437376
2018-11-02T00:05:50.682Z,3.218688
2018-11-02T00:06:03.241Z,3.218688
2018-11-02T00:06:16.759Z,3.218688
2018-11-02T00:06:30.945Z,3.218688
2018-11-02T00:06:44.176Z,3.218688
2018-11-02T00:06:56.409Z,3.218688
2018-11-02T00:07:08.659Z,6.437376
2018-11-02T00:07:20.959Z,6.437376
2018-11-02T00:07:33.367Z,8.04672
2018-11-02T00:07:46.576Z,9.656064
2018-11-02T00:07:58.776Z,1.609344
2018-11-02T00:08:11.003Z,4.828032
2018-11-02T00:08:23.241Z,4.828032
2018-11-02T00:08:35.476Z,3.218688
2018-11-02T00:08:48.345Z,1.609344
2018-11-02T00:09:00.888Z,1.609344
2018-11-02T00:09:13.108Z,6.437376
2018-11-02T00:09:25.323Z,3.218688
2018-11-02T00:09:37.535Z,3.218688
2018-11-02T00:09:49.798Z,1.609344
2018-11-02T00:10:03.059Z,3.218688
2018-11-02T00:10:15.291Z,3.218688
2018-11-02T00:10:27.529Z,6.437376
2018-11-02T00:10:39.801Z,3.218688
2018-11-02T00:10:52.020Z,3.218688
2018-11-02T00:11:04.928Z,8.04672
2018-11-02T00:11:17.309Z,6.437376
2018-11-02T00:11:29.554Z,6.437376
2018-11-02T00:11:41.802Z,12.874752
2018-11-02T00:11:54.092Z,8.04672
2018-11-02T00:12:06.921Z,6.437376
2018-11-02T00:12:21.028Z,4.828032
2018-11-02T00:12:35.387Z,4.828032
2018-11-02T00:12:47.606Z,9.656064
2018-11-02T00:12:59.825Z,3.218688
2018-11-02T00:13:12.097Z,1.609344
2018-11-02T00:13:25.140Z,3.218688
2018-11-02T00:13:37.384Z,8.04672
2018-11-02T00:13:49.616Z,8.04672
2018-11-02T00:14:01.836Z,6.437376
2018-11-02T00:14:14.109Z,3.218688
2018-11-02T00:14:27.175Z,3.218688
2018-11-02T00:14:39.414Z,9.656064
2018-11-02T00:14:51.653Z,6.437376
2018-11-02T00:15:04.255Z,9.656064
2018-11-02T00:15:16.507Z,12.874752
2018-11-02T00:15:29.784Z,8.04672
2018-11-02T00:15:41.988Z,9.656064
2018-11-02T00:15:54.201Z,9.656064
2018-11-02T00:16:06.521Z,11.265408
2018-11-02T00:16:18.792Z,8.04672
2018-11-02T00:16:31.217Z,4.828032
2018-11-02T00:16:44.405Z,3.218688
2018-11-02T00:16:56.609Z,1.609344
2018-11-02T00:17:08.923Z,6.437376
2018-11-02T00:17:21.187Z,8.04672
2018-11-02T00:17:33.433Z,6.437376
2018-11-02T00:17:46.464Z,4.828032
2018-11-02T00:17:58.674Z,8.04672
2018-11-02T00:18:10.932Z,4.828032
2018-11-02T00:18:23.144Z,4.828032
2018-11-02T00:18:35.350Z,11.265408
2018-11-02T00:18:48.189Z,4.828032
2018-11-02T00:19:00.392Z,3.218688
2018-11-02T00:19:12.593Z,8.04672
2018-11-02T00:19:24.870Z,8.04672
2018-11-02T00:19:37.070Z,8.04672
2018-11-02T00:19:49.375Z,6.437376
2018-11-02T00:20:02.430Z,6.437376
2018-11-02T00:20:14.869Z,3.218688
2018-11-02T00:20:27.125Z,8.04672
2018-11-02T00:20:39.359Z,6.437376
2018-11-02T00:20:51.675Z,3.218688
2018-11-02T00:21:04.705Z,9.656064
2018-11-02T00:21:17.014Z,6.437376
2018-11-02T00:21:29.272Z,4.828032
2018-11-02T00:21:41.485Z,1.609344
2018-11-02T00:21:53.754Z,1.609344
2018-11-02T00:22:06.560Z,3.218688
2018-11-02T00:22:19.157Z,3.218688
2018-11-02T00:22:31.473Z,3.218688
2018-11-02T00:22:43.814Z,3.218688
2018-11-02T00:22:56.509Z,6.437376
2018-11-02T00:23:08.749Z,8.04672
2018-11-02T00:23:21.845Z,9.656064
2018-11-02T00:23:34.071Z,6.437376
2018-11-02T00:23:46.350Z,9.656064
2018-11-02T00:23:58.598Z,9.656064
2018-11-02T00:24:10.838Z,8.04672
2018-11-02T00:24:23.702Z,6.437376
2018-11-02T00:24:36.111Z,9.656064
2018-11-02T00:24:48.335Z,12.874752
2018-11-02T00:25:00.711Z,8.04672
2018-11-02T00:25:13.083Z,6.437376
2018-11-02T00:25:25.703Z,6.437376
2018-11-02T00:25:38.206Z,4.828032
2018-11-02T00:25:50.486Z,1.609344
2018-11-02T00:26:02.749Z,0
2018-11-02T00:26:15.003Z,8.04672
2018-11-02T00:26:27.255Z,8.04672
2018-11-02T00:26:40.284Z,6.437376
2018-11-02T00:26:52.554Z,6.437376
2018-11-02T00:27:04.769Z,11.265408
2018-11-02T00:27:16.971Z,6.437376
2018-11-02T00:27:29.344Z,3.218688
2018-11-02T00:27:42.282Z,4.828032
2018-11-02T00:27:54.494Z,8.04672
2018-11-02T00:28:06.736Z,9.656064
2018-11-02T00:28:18.943Z,9.656064
2018-11-02T00:28:31.234Z,3.218688
2018-11-02T00:28:44.026Z,3.218688
2018-11-02T00:28:56.673Z,3.218688
2018-11-02T00:29:09.069Z,3.218688
2018-11-02T00:29:21.395Z,3.218688
2018-11-02T00:29:33.666Z,3.218688
2018-11-02T00:29:45.945Z,6.437376
2018-11-02T00:29:59.029Z,6.437376
2018-11-02T00:30:11.288Z,9.656064
2018-11-02T00:30:23.538Z,12.874752
2018-11-02T00:30:35.812Z,6.437376
2018-11-02T00:30:48.080Z,3.218688
2018-11-02T00:31:01.221Z,1.609344
2018-11-02T00:31:13.485Z,3.218688
2018-11-02T00:31:26.267Z,6.437376
2018-11-02T00:31:38.575Z,3.218688
2018-11-02T00:31:51.749Z,3.218688
2018-11-02T00:32:06.865Z,0
2018-11-02T00:32:19.394Z,1.609344
2018-11-02T00:32:31.714Z,3.218688
2018-11-02T00:32:43.961Z,3.218688
2018-11-02T00:32:56.203Z,1.609344
2018-11-02T00:33:08.412Z,1.609344
2018-11-02T00:33:21.293Z,1.609344
2018-11-02T00:33:33.564Z,3.218688
2018-11-02T00:33:45.769Z,3.218688
2018-11-02T00:33:58.011Z,3.218688
2018-11-02T00:34:10.249Z,3.218688
2018-11-02T00:34:23.516Z,1.609344
2018-11-02T00:34:35.756Z,6.437376
2018-11-02T00:34:47.977Z,1.609344
2018-11-02T00:35:00.198Z,6.437376
2018-11-02T00:35:12.451Z,1.609344
2018-11-02T00:35:25.424Z,8.04672
2018-11-02T00:35:37.624Z,6.437376
2018-11-02T00:35:49.980Z,6.437376
2018-11-02T00:36:02.291Z,3.218688
2018-11-02T00:36:14.542Z,3.218688
2018-11-02T00:36:26.823Z,4.828032
2018-11-02T00:36:39.834Z,3.218688
2018-11-02T00:36:52.077Z,3.218688
2018-11-02T00:37:04.372Z,3.218688
2018-11-02T00:37:16.594Z,6.437376
2018-11-02T00:37:29.106Z,6.437376
2018-11-02T00:37:42.221Z,3.218688
2018-11-02T00:37:54.429Z,1.609344
2018-11-02T00:38:06.670Z,1.609344
2018-11-02T00:38:18.898Z,1.609344
2018-11-02T00:38:31.156Z,3.218688
2018-11-02T00:38:44.168Z,4.828032
2018-11-02T00:38:56.479Z,1.609344
2018-11-02T00:39:08.721Z,3.218688
2018-11-02T00:39:21.097Z,1.609344
2018-11-02T00:39:33.322Z,0
2018-11-02T00:39:45.568Z,3.218688
2018-11-02T00:39:58.894Z,1.609344
2018-11-02T00:40:11.160Z,3.218688
2018-11-02T00:40:23.405Z,3.218688
2018-11-02T00:40:35.645Z,6.437376
2018-11-02T00:40:47.875Z,3.218688
2018-11-02T00:41:00.737Z,1.609344
2018-11-02T00:41:12.985Z,6.437376
2018-11-02T00:41:25.223Z,6.437376
2018-11-02T00:41:37.445Z,8.04672
2018-11-02T00:41:49.676Z,6.437376
2018-11-02T00:42:02.700Z,6.437376
2018-11-02T00:42:15.139Z,4.828032
2018-11-02T00:42:27.404Z,1.609344
2018-11-02T00:42:39.649Z,1.609344
2018-11-02T00:42:51.915Z,0
2018-11-02T00:43:04.183Z,3.218688
2018-11-02T00:43:17.428Z,3.218688
2018-11-02T00:43:29.659Z,3.218688
2018-11-02T00:43:41.941Z,1.609344
2018-11-02T00:43:54.972Z,1.609344
2018-11-02T00:44:08.778Z,1.609344
2018-11-02T00:44:24.218Z,9.656064
2018-11-02T00:44:36.469Z,6.437376
2018-11-02T00:44:48.678Z,6.437376
2018-11-02T00:45:00.949Z,4.828032
2018-11-02T00:45:13.229Z,3.218688
2018-11-02T00:45:26.164Z,3.218688
2018-11-02T00:45:38.451Z,0
2018-11-02T00:45:50.680Z,1.609344
2018-11-02T00:46:03.014Z,0
2018-11-02T00:46:15.343Z,1.609344
2018-11-02T00:46:28.289Z,1.609344
2018-11-02T00:46:40.689Z,3.218688
2018-11-02T00:46:52.907Z,4.828032
2018-11-02T00:47:05.176Z,3.218688
2018-11-02T00:47:17.403Z,3.218688
2018-11-02T00:47:29.633Z,6.437376
2018-11-02T00:47:42.983Z,3.218688
2018-11-02T00:47:55.182Z,1.609344
2018-11-02T00:48:07.455Z,1.609344
2018-11-02T00:48:19.699Z,1.609344
2018-11-02T00:48:31.993Z,1.609344
2018-11-02T00:48:45.125Z,0
2018-11-02T00:48:57.347Z,0
2018-11-02T00:49:09.584Z,0
2018-11-02T00:49:21.817Z,1.609344
2018-11-02T00:49:34.047Z,1.609344
2018-11-02T00:49:48.407Z,1.609344
2018-11-02T00:50:00.639Z,1.609344
2018-11-02T00:50:12.880Z,0
2018-11-02T00:50:25.120Z,0
2018-11-02T00:50:37.380Z,1.609344
2018-11-02T00:50:49.648Z,1.609344
2018-11-02T00:51:02.767Z,1.609344
2018-11-02T00:51:15.075Z,1.609344
2018-11-02T00:51:27.315Z,8.04672
2018-11-02T00:51:39.517Z,6.437376
2018-11-02T00:51:51.723Z,6.437376
2018-11-02T00:52:04.940Z,3.218688
2018-11-02T00:52:17.160Z,3.218688
2018-11-02T00:52:29.366Z,1.609344
2018-11-02T00:52:41.578Z,0
2018-11-02T00:52:53.953Z,1.609344
2018-11-02T00:53:06.899Z,0
2018-11-02T00:53:19.716Z,0
2018-11-02T00:53:31.985Z,0
2018-11-02T00:53:44.259Z,0
2018-11-02T00:53:56.544Z,0
2018-11-02T00:54:08.788Z,0
2018-11-02T00:54:22.023Z,1.609344
2018-11-02T00:54:34.232Z,0
2018-11-02T00:54:46.633Z,0
2018-11-02T00:54:58.937Z,0
2018-11-02T00:55:11.418Z,1.609344
2018-11-02T00:55:24.450Z,1.609344
2018-11-02T00:55:36.777Z,1.609344
2018-11-02T00:55:48.971Z,1.609344
2018-11-02T00:56:01.383Z,1.609344
2018-11-02T00:56:13.613Z,1.609344
2018-11-02T00:56:26.408Z,1.609344
2018-11-02T00:56:38.793Z,1.609344
2018-11-02T00:56:50.988Z,0
2018-11-02T00:57:03.204Z,0
2018-11-02T00:57:15.440Z,1.609344
2018-11-02T00:57:27.697Z,0
2018-11-02T00:57:40.583Z,0
2018-11-02T00:57:52.910Z,0
2018-11-02T00:58:05.126Z,0
2018-11-02T00:58:17.593Z,0
2018-11-02T00:58:30.054Z,0
2018-11-02T00:58:43.162Z,0
2018-11-02T00:58:55.374Z,0
2018-11-02T00:59:07.669Z,0
2018-11-02T00:59:20.025Z,0
2018-11-02T00:59:32.345Z,0
2018-11-02T00:59:45.253Z,0
2018-11-02T00:59:57.957Z,0
2018-11-02T01:00:10.195Z,0
2018-11-02T01:00:22.537Z,1.609344
2018-11-02T01:00:35.183Z,0
2018-11-02T01:00:47.503Z,0
2018-11-02T01:01:00.795Z,0
2018-11-02T01:01:13.053Z,1.609344
2018-11-02T01:01:25.260Z,1.609344
2018-11-02T01:01:37.495Z,0
2018-11-02T01:01:49.746Z,0
2018-11-02T01:02:02.962Z,0
2018-11-02T01:02:15.233Z,0
2018-11-02T01:02:27.448Z,0
2018-11-02T01:02:39.730Z,0
2018-11-02T01:02:51.957Z,0
2018-11-02T01:03:04.653Z,0
2018-11-02T01:03:17.656Z,0
2018-11-02T01:03:29.939Z,0
2018-11-02T01:03:42.301Z,0
2018-11-02T01:03:54.555Z,0
2018-11-02T01:04:06.828Z,0
2018-11-02T01:04:20.111Z,0
2018-11-02T01:04:32.526Z,0
2018-11-02T01:04:45.523Z,0
2018-11-02T01:04:58.149Z,0
2018-11-02T01:05:10.394Z,0
2018-11-02T01:05:23.456Z,0
2018-11-02T01:05:35.744Z,1.609344
2018-11-02T01:05:48.859Z,0
2018-11-02T01:06:01.354Z,0
2018-11-02T01:06:13.597Z,0
2018-11-02T01:06:26.623Z,0
2018-11-02T01:06:39.204Z,1.609344
2018-11-02T01:06:51.448Z,0
2018-11-02T01:07:03.683Z,0
2018-11-02T01:07:15.907Z,0
2018-11-02T01:07:28.140Z,0
2018-11-02T01:07:41.304Z,0
2018-11-02T01:07:53.544Z,0
2018-11-02T01:08:05.807Z,3.218688
2018-11-02T01:08:18.073Z,3.218688
2018-11-02T01:08:30.280Z,3.218688
2018-11-02T01:08:43.441Z,1.609344
2018-11-02T01:08:55.693Z,0
2018-11-02T01:09:07.988Z,0
2018-11-02T01:09:20.289Z,1.609344
2018-11-02T01:09:32.535Z,1.609344
2018-11-02T01:09:45.163Z,1.609344
2018-11-02T01:09:57.696Z,1.609344
2018-11-02T01:10:09.937Z,1.609344
2018-11-02T01:10:22.166Z,1.609344
2018-11-02T01:10:34.376Z,0
2018-11-02T01:10:46.780Z,0
2018-11-02T01:10:59.909Z,1.609344
2018-11-02T01:11:12.161Z,1.609344
2018-11-02T01:11:24.414Z,3.218688
2018-11-02T01:11:36.639Z,3.218688
2018-11-02T01:11:48.828Z,1.609344
2018-11-02T01:12:01.992Z,1.609344
2018-11-02T01:12:14.257Z,1.609344
2018-11-02T01:12:26.454Z,1.609344
2018-11-02T01:12:38.907Z,3.218688
2018-11-02T01:12:51.135Z,1.609344
2018-11-02T01:13:03.478Z,3.218688
2018-11-02T01:13:16.465Z,3.218688
2018-11-02T01:13:28.706Z,3.218688
2018-11-02T01:13:40.958Z,3.218688
2018-11-02T01:13:53.137Z,6.437376
2018-11-02T01:14:05.376Z,1.609344
2018-11-02T01:14:18.422Z,3.218688
2018-11-02T01:14:30.747Z,1.609344
2018-11-02T01:14:42.999Z,3.218688
2018-11-02T01:14:55.260Z,3.218688
2018-11-02T01:15:07.763Z,1.609344
2018-11-02T01:15:20.883Z,1.609344
2018-11-02T01:15:33.114Z,3.218688
2018-11-02T01:15:45.368Z,1.609344
2018-11-02T01:15:57.541Z,1.609344
2018-11-02T01:16:09.759Z,3.218688
2018-11-02T01:16:22.111Z,1.609344
2018-11-02T01:16:36.349Z,3.218688
2018-11-02T01:16:50.090Z,1.609344
2018-11-02T01:17:02.894Z,3.218688
2018-11-02T01:17:15.216Z,3.218688
2018-11-02T01:17:27.490Z,3.218688
2018-11-02T01:17:40.471Z,1.609344
2018-11-02T01:17:52.922Z,1.609344
2018-11-02T01:18:05.131Z,1.609344
2018-11-02T01:18:17.386Z,4.828032
2018-11-02T01:18:29.602Z,3.218688
2018-11-02T01:18:42.665Z,1.609344
2018-11-02T01:18:54.898Z,3.218688
2018-11-02T01:19:07.120Z,1.609344
2018-11-02T01:19:19.421Z,0
2018-11-02T01:19:31.682Z,1.609344
2018-11-02T01:19:44.150Z,1.609344
2018-11-02T01:19:56.865Z,3.218688
2018-11-02T01:20:09.114Z,4.828032
2018-11-02T01:20:21.362Z,6.437376
2018-11-02T01:20:33.575Z,8.04672
2018-11-02T01:20:45.824Z,8.04672
2018-11-02T01:20:58.894Z,8.04672
2018-11-02T01:21:11.271Z,6.437376
2018-11-02T01:21:23.505Z,6.437376
2018-11-02T01:21:35.716Z,3.218688
2018-11-02T01:21:47.974Z,3.218688
2018-11-02T01:22:01.363Z,3.218688
2018-11-02T01:22:13.770Z,1.609344
2018-11-02T01:22:26.032Z,3.218688
2018-11-02T01:22:38.458Z,1.609344
2018-11-02T01:22:50.701Z,1.609344
2018-11-02T01:23:03.218Z,1.609344
2018-11-02T01:23:16.025Z,1.609344
2018-11-02T01:23:28.271Z,1.609344
2018-11-02T01:23:40.513Z,1.609344
2018-11-02T01:23:52.756Z,0
2018-11-02T01:24:05.620Z,0
2018-11-02T01:24:19.015Z,1.609344
2018-11-02T01:24:31.484Z,1.609344
2018-11-02T01:24:43.739Z,1.609344
2018-11-02T01:24:55.965Z,1.609344
2018-11-02T01:25:08.372Z,1.609344
2018-11-02T01:25:21.322Z,1.609344
2018-11-02T01:25:33.567Z,1.609344
2018-11-02T01:25:45.819Z,3.218688
2018-11-02T01:25:58.111Z,1.609344
2018-11-02T01:26:10.357Z,1.609344
2018-11-02T01:26:23.051Z,3.218688
2018-11-02T01:26:35.688Z,3.218688
2018-11-02T01:26:47.906Z,1.609344
2018-11-02T01:27:00.129Z,1.609344
2018-11-02T01:27:12.386Z,1.609344
2018-11-02T01:27:24.741Z,0
2018-11-02T01:27:37.855Z,1.609344
2018-11-02T01:27:50.088Z,0
2018-11-02T01:28:02.399Z,0
2018-11-02T01:28:14.631Z,1.609344
2018-11-02T01:28:26.861Z,3.218688
2018-11-02T01:28:39.853Z,3.218688
2018-11-02T01:28:52.233Z,3.218688
2018-11-02T01:29:04.677Z,1.609344
2018-11-02T01:29:16.934Z,3.218688
2018-11-02T01:29:29.214Z,0
2018-11-02T01:29:41.755Z,0
2018-11-02T01:29:54.848Z,3.218688
2018-11-02T01:30:07.062Z,1.609344
2018-11-02T01:30:19.311Z,3.218688
2018-11-02T01:30:31.512Z,3.218688
2018-11-02T01:30:43.736Z,1.609344
2018-11-02T01:30:56.927Z,3.218688
2018-11-02T01:31:09.219Z,3.218688
2018-11-02T01:31:21.466Z,1.609344
2018-11-02T01:31:33.680Z,3.218688
2018-11-02T01:31:45.937Z,6.437376
2018-11-02T01:31:58.976Z,3.218688
2018-11-02T01:32:11.237Z,4.828032
2018-11-02T01:32:23.457Z,3.218688
2018-11-02T01:32:35.689Z,4.828032
2018-11-02T01:32:47.922Z,3.218688
2018-11-02T01:33:00.174Z,3.218688
2018-11-02T01:33:13.362Z,3.218688
2018-11-02T01:33:25.585Z,4.828032
2018-11-02T01:33:37.815Z,4.828032
2018-11-02T01:33:50.093Z,4.828032
2018-11-02T01:34:02.344Z,6.437376
2018-11-02T01:34:15.512Z,6.437376
2018-11-02T01:34:27.737Z,6.437376
2018-11-02T01:34:39.983Z,6.437376
2018-11-02T01:34:52.188Z,6.437376
2018-11-02T01:35:04.418Z,6.437376
2018-11-02T01:35:17.360Z,4.828032
2018-11-02T01:35:29.710Z,4.828032
2018-11-02T01:35:42.043Z,4.828032
2018-11-02T01:35:54.296Z,4.828032
2018-11-02T01:36:06.606Z,6.437376
2018-11-02T01:36:18.854Z,1.609344
2018-11-02T01:36:32.093Z,3.218688
2018-11-02T01:36:44.523Z,4.828032
2018-11-02T01:36:56.731Z,1.609344
2018-11-02T01:37:09.002Z,4.828032
2018-11-02T01:37:21.290Z,6.437376
2018-11-02T01:37:34.829Z,3.218688
2018-11-02T01:37:47.256Z,6.437376
2018-11-02T01:37:59.506Z,6.437376
2018-11-02T01:38:11.773Z,8.04672
2018-11-02T01:38:23.983Z,8.04672
2018-11-02T01:38:36.982Z,8.04672
2018-11-02T01:38:49.315Z,6.437376
2018-11-02T01:39:01.554Z,3.218688
2018-11-02T01:39:13.771Z,3.218688
2018-11-02T01:39:26.044Z,3.218688
2018-11-02T01:39:38.432Z,1.609344
2018-11-02T01:39:51.423Z,3.218688
2018-11-02T01:40:03.673Z,4.828032
2018-11-02T01:40:15.968Z,4.828032
2018-11-02T01:40:28.301Z,3.218688
2018-11-02T01:40:40.616Z,6.437376
2018-11-02T01:40:53.677Z,4.828032
2018-11-02T01:41:05.893Z,3.218688
2018-11-02T01:41:18.143Z,1.609344
2018-11-02T01:41:30.389Z,1.609344
2018-11-02T01:41:42.606Z,1.609344
2018-11-02T01:41:55.602Z,1.609344
2018-11-02T01:42:08.096Z,6.437376
2018-11-02T01:42:20.328Z,6.437376
2018-11-02T01:42:32.540Z,6.437376
2018-11-02T01:42:44.765Z,6.437376
2018-11-02T01:42:57.018Z,6.437376
2018-11-02T01:43:10.114Z,6.437376
2018-11-02T01:43:22.341Z,6.437376
2018-11-02T01:43:34.691Z,6.437376
2018-11-02T01:43:46.964Z,3.218688
2018-11-02T01:43:59.174Z,3.218688
2018-11-02T01:44:12.243Z,1.609344
2018-11-02T01:44:24.549Z,3.218688
2018-11-02T01:44:36.836Z,6.437376
2018-11-02T01:44:49.093Z,4.828032
2018-11-02T01:45:01.339Z,4.828032
2018-11-02T01:45:14.180Z,3.218688
2018-11-02T01:45:26.947Z,6.437376
2018-11-02T01:45:39.180Z,1.609344
2018-11-02T01:45:51.413Z,3.218688
2018-11-02T01:46:03.614Z,3.218688
2018-11-02T01:46:15.831Z,6.437376
2018-11-02T01:46:29.283Z,6.437376
2018-11-02T01:46:41.723Z,8.04672
2018-11-02T01:46:53.964Z,8.04672
2018-11-02T01:47:06.218Z,6.437376
2018-11-02T01:47:18.425Z,4.828032
2018-11-02T01:47:31.646Z,6.437376
2018-11-02T01:47:43.948Z,3.218688
2018-11-02T01:47:56.167Z,3.218688
2018-11-02T01:48:08.399Z,6.437376
2018-11-02T01:48:20.622Z,6.437376
2018-11-02T01:48:33.224Z,3.218688
2018-11-02T01:48:45.947Z,3.218688
2018-11-02T01:48:58.161Z,3.218688
2018-11-02T01:49:10.470Z,1.609344
2018-11-02T01:49:22.723Z,3.218688
2018-11-02T01:49:35.010Z,3.218688
2018-11-02T01:49:48.306Z,1.609344
2018-11-02T01:50:00.558Z,3.218688
2018-11-02T01:50:12.868Z,4.828032
2018-11-02T01:50:25.064Z,6.437376
2018-11-02T01:50:37.305Z,9.656064
2018-11-02T01:50:50.370Z,8.04672
2018-11-02T01:51:02.600Z,3.218688
2018-11-02T01:51:14.892Z,1.609344
2018-11-02T01:51:27.130Z,1.609344
2018-11-02T01:51:39.416Z,4.828032
2018-11-02T01:51:52.039Z,6.437376
2018-11-02T01:52:04.820Z,3.218688
2018-11-02T01:52:17.044Z,6.437376
2018-11-02T01:52:29.312Z,3.218688
2018-11-02T01:52:41.624Z,3.218688
2018-11-02T01:52:54.158Z,3.218688
2018-11-02T01:53:07.228Z,3.218688
2018-11-02T01:53:19.653Z,1.609344
2018-11-02T01:53:31.913Z,1.609344
2018-11-02T01:53:44.235Z,0
2018-11-02T01:53:56.534Z,0
2018-11-02T01:54:09.816Z,4.828032
2018-11-02T01:54:22.074Z,3.218688
2018-11-02T01:54:34.317Z,3.218688
2018-11-02T01:54:46.528Z,3.218688
2018-11-02T01:54:58.726Z,1.609344
2018-11-02T01:55:11.332Z,1.609344
2018-11-02T01:55:24.125Z,3.218688
2018-11-02T01:55:36.336Z,3.218688
2018-11-02T01:55:48.554Z,3.218688
2018-11-02T01:56:00.750Z,3.218688
2018-11-02T01:56:13.017Z,3.218688
2018-11-02T01:56:26.161Z,0
2018-11-02T01:56:38.397Z,3.218688
2018-11-02T01:56:50.714Z,3.218688
2018-11-02T01:57:02.969Z,3.218688
2018-11-02T01:57:15.191Z,6.437376
2018-11-02T01:57:28.152Z,1.609344
2018-11-02T01:57:40.378Z,1.609344
2018-11-02T01:57:52.651Z,1.609344
2018-11-02T01:58:04.869Z,3.218688
2018-11-02T01:58:17.202Z,3.218688
2018-11-02T01:58:29.556Z,6.437376
2018-11-02T01:58:42.473Z,6.437376
2018-11-02T01:58:54.704Z,3.218688
2018-11-02T01:59:06.948Z,6.437376
2018-11-02T01:59:19.202Z,4.828032
2018-11-02T01:59:31.420Z,3.218688
2018-11-02T01:59:44.516Z,3.218688
2018-11-02T01:59:56.720Z,3.218688
2018-11-02T02:00:09.022Z,3.218688
2018-11-02T02:00:21.302Z,6.437376
2018-11-02T02:00:33.705Z,3.218688
2018-11-02T02:00:46.821Z,3.218688
2018-11-02T02:00:59.058Z,6.437376
2018-11-02T02:01:11.304Z,6.437376
2018-11-02T02:01:23.500Z,3.218688
2018-11-02T02:01:35.784Z,3.218688
2018-11-02T02:01:48.125Z,4.828032
2018-11-02T02:02:01.236Z,6.437376
2018-11-02T02:02:13.555Z,3.218688
2018-11-02T02:02:25.778Z,3.218688
2018-11-02T02:02:37.986Z,1.609344
2018-11-02T02:02:50.188Z,1.609344
2018-11-02T02:03:03.432Z,3.218688
2018-11-02T02:03:15.689Z,3.218688
2018-11-02T02:03:27.934Z,6.437376
2018-11-02T02:03:40.151Z,4.828032
2018-11-02T02:03:52.354Z,3.218688
2018-11-02T02:04:05.378Z,3.218688
2018-11-02T02:04:17.872Z,1.609344
2018-11-02T02:04:30.166Z,1.609344
2018-11-02T02:04:42.519Z,1.609344
2018-11-02T02:04:54.794Z,1.609344
2018-11-02T02:05:07.028Z,1.609344
2018-11-02T02:05:20.071Z,3.218688
2018-11-02T02:05:32.297Z,3.218688
2018-11-02T02:05:44.515Z,3.218688
2018-11-02T02:05:56.707Z,1.609344
2018-11-02T02:06:09.104Z,3.218688
2018-11-02T02:06:21.949Z,1.609344
2018-11-02T02:06:34.173Z,3.218688
2018-11-02T02:06:46.466Z,1.609344
2018-11-02T02:06:58.835Z,1.609344
2018-11-02T02:07:11.040Z,3.218688
2018-11-02T02:07:23.863Z,1.609344
2018-11-02T02:07:36.335Z,3.218688
2018-11-02T02:07:48.571Z,3.218688
2018-11-02T02:08:00.827Z,1.609344
2018-11-02T02:08:13.100Z,1.609344
2018-11-02T02:08:25.292Z,1.609344
2018-11-02T02:08:38.346Z,3.218688
2018-11-02T02:08:50.597Z,1.609344
2018-11-02T02:09:02.797Z,0
2018-11-02T02:09:14.996Z,1.609344
2018-11-02T02:09:27.235Z,3.218688
2018-11-02T02:09:40.042Z,3.218688
2018-11-02T02:09:52.262Z,1.609344
2018-11-02T02:10:04.694Z,1.609344
2018-11-02T02:10:16.928Z,1.609344
2018-11-02T02:10:29.172Z,3.218688
2018-11-02T02:10:41.934Z,1.609344
2018-11-02T02:10:54.430Z,1.609344
2018-11-02T02:11:06.737Z,3.218688
2018-11-02T02:11:18.950Z,1.609344
2018-11-02T02:11:31.209Z,0
2018-11-02T02:11:43.458Z,0
2018-11-02T02:11:56.304Z,1.609344
2018-11-02T02:12:08.600Z,1.609344
2018-11-02T02:12:20.828Z,1.609344
2018-11-02T02:12:33.223Z,3.218688
2018-11-02T02:12:45.434Z,6.437376
2018-11-02T02:12:58.629Z,4.828032
2018-11-02T02:13:11.801Z,3.218688
2018-11-02T02:13:26.207Z,1.609344
2018-11-02T02:13:38.573Z,1.609344
2018-11-02T02:13:50.786Z,0
2018-11-02T02:14:03.791Z,1.609344
2018-11-02T02:14:16.026Z,1.609344
2018-11-02T02:14:28.312Z,1.609344
2018-11-02T02:14:40.532Z,1.609344
2018-11-02T02:14:52.804Z,1.609344
2018-11-02T02:15:05.068Z,1.609344
2018-11-02T02:15:18.354Z,1.609344
2018-11-02T02:15:30.570Z,1.609344
2018-11-02T02:15:42.807Z,0
2018-11-02T02:15:55.070Z,1.609344
2018-11-02T02:16:07.329Z,3.218688
2018-11-02T02:16:20.580Z,1.609344
2018-11-02T02:16:32.800Z,1.609344
2018-11-02T02:16:45.044Z,1.609344
2018-11-02T02:16:57.300Z,0
2018-11-02T02:17:09.582Z,0
2018-11-02T02:17:22.762Z,1.609344
2018-11-02T02:17:34.989Z,3.218688
2018-11-02T02:17:47.248Z,3.218688
2018-11-02T02:17:59.499Z,1.609344
2018-11-02T02:18:11.740Z,8.04672
2018-11-02T02:18:24.029Z,3.218688
2018-11-02T02:18:37.307Z,3.218688
2018-11-02T02:18:49.660Z,1.609344
2018-11-02T02:19:01.899Z,1.609344
2018-11-02T02:19:14.185Z,1.609344
2018-11-02T02:19:26.395Z,1.609344
2018-11-02T02:19:39.470Z,3.218688
2018-11-02T02:19:51.687Z,3.218688
2018-11-02T02:20:03.965Z,3.218688
2018-11-02T02:20:16.245Z,1.609344
2018-11-02T02:20:28.448Z,3.218688
2018-11-02T02:20:41.671Z,1.609344
2018-11-02T02:20:54.015Z,3.218688
2018-11-02T02:21:06.328Z,3.218688
2018-11-02T02:21:18.611Z,1.609344
2018-11-02T02:21:30.817Z,3.218688
2018-11-02T02:21:43.040Z,3.218688
2018-11-02T02:21:56.018Z,1.609344
2018-11-02T02:22:08.408Z,1.609344
2018-11-02T02:22:20.632Z,3.218688
2018-11-02T02:22:32.857Z,1.609344
2018-11-02T02:22:45.232Z,1.609344
2018-11-02T02:23:00.093Z,3.218688
2018-11-02T02:23:12.382Z,1.609344
2018-11-02T02:23:24.644Z,1.609344
2018-11-02T02:23:36.919Z,1.609344
2018-11-02T02:23:49.163Z,1.609344
2018-11-02T02:24:02.046Z,1.609344
2018-11-02T02:24:14.289Z,1.609344
2018-11-02T02:24:26.549Z,1.609344
2018-11-02T02:24:38.860Z,0
2018-11-02T02:24:51.138Z,1.609344
2018-11-02T02:25:03.713Z,0
2018-11-02T02:25:17.145Z,1.609344
2018-11-02T02:25:29.344Z,0
2018-11-02T02:25:41.562Z,1.609344
2018-11-02T02:25:53.756Z,1.609344
2018-11-02T02:26:06.122Z,1.609344
2018-11-02T02:26:19.281Z,0
2018-11-02T02:26:31.660Z,1.609344
2018-11-02T02:26:43.883Z,1.609344
2018-11-02T02:26:56.156Z,3.218688
2018-11-02T02:27:08.444Z,3.218688
2018-11-02T02:27:21.429Z,3.218688
2018-11-02T02:27:33.722Z,3.218688
2018-11-02T02:27:45.972Z,1.609344
2018-11-02T02:27:58.209Z,1.609344
2018-11-02T02:28:10.453Z,1.609344
2018-11-02T02:28:22.687Z,1.609344
2018-11-02T02:28:35.606Z,1.609344
2018-11-02T02:28:48.361Z,1.609344
2018-11-02T02:29:00.563Z,1.609344
2018-11-02T02:29:12.764Z,1.609344
2018-11-02T02:29:24.998Z,3.218688
2018-11-02T02:29:38.440Z,1.609344
2018-11-02T02:29:50.664Z,3.218688
2018-11-02T02:30:02.881Z,3.218688
2018-11-02T02:30:15.166Z,3.218688
2018-11-02T02:30:27.425Z,4.828032
2018-11-02T02:30:40.446Z,3.218688
2018-11-02T02:30:52.731Z,3.218688